createdAt,value
2022-08-23T20:13:46.979Z,22.10
2022-08-23T20:16:15.218Z,22.00
2022-08-23T20:18:44.126Z,21.90
2022-08-23T20:21:12.175Z,21.90
2022-08-23T20:24:04.179Z,21.90
2022-08-23T20:26:34.544Z,21.90
2022-08-23T20:29:05.716Z,21.90
2022-08-23T20:31:37.560Z,21.80
2022-08-23T20:34:07.637Z,21.80
2022-08-23T20:36:37.451Z,21.70
2022-08-23T20:39:05.818Z,21.70
2022-08-23T20:41:37.272Z,21.70
2022-08-23T20:44:08.604Z,21.70
2022-08-23T20:46:36.910Z,21.70
2022-08-23T20:49:05.942Z,21.60
2022-08-23T20:51:36.679Z,21.60
2022-08-23T20:54:05.323Z,21.50
2022-08-23T20:56:33.488Z,21.50
2022-08-23T20:59:01.722Z,21.50
2022-08-23T21:01:31.185Z,21.50
2022-08-23T21:03:59.174Z,21.40
2022-08-23T21:06:29.017Z,21.40
2022-08-23T21:08:59.972Z,21.40
2022-08-23T21:11:29.867Z,21.40
2022-08-23T21:13:58.831Z,21.30
2022-08-23T21:16:27.290Z,21.30
2022-08-23T21:18:57.228Z,21.20
2022-08-23T21:21:25.989Z,21.20
2022-08-23T21:23:55.157Z,21.10
2022-08-23T21:26:24.575Z,21.10
2022-08-23T21:28:53.695Z,21.10
2022-08-23T21:31:24.800Z,21.00
2022-08-23T21:33:54.090Z,21.00
2022-08-23T21:36:25.636Z,20.90
2022-08-23T21:38:53.849Z,20.90
2022-08-23T21:41:31.302Z,20.90
2022-08-23T21:43:59.537Z,20.90
2022-08-23T21:46:27.935Z,20.90
2022-08-23T21:48:56.195Z,20.90
2022-08-23T21:51:25.606Z,20.80
2022-08-23T21:53:53.666Z,20.80
2022-08-23T21:56:22.771Z,20.80
2022-08-23T21:58:57.958Z,20.80
2022-08-23T22:01:26.239Z,20.70
2022-08-23T22:03:56.994Z,20.70
2022-08-23T22:06:27.331Z,20.70
2022-08-23T22:08:56.075Z,20.70
2022-08-23T22:11:24.314Z,20.60
2022-08-23T22:13:53.746Z,20.60
2022-08-23T22:16:22.428Z,20.50
2022-08-23T22:18:50.846Z,20.50
2022-08-23T22:21:18.862Z,20.50
2022-08-23T22:23:48.253Z,20.50
2022-08-23T22:26:16.337Z,20.40
2022-08-23T22:28:45.012Z,20.40
2022-08-23T22:31:15.896Z,20.40
2022-08-23T22:33:45.076Z,20.40
2022-08-23T22:36:16.481Z,20.40
2022-08-23T22:38:44.707Z,20.30
2022-08-23T22:41:17.512Z,20.30
2022-08-23T22:43:45.671Z,20.30
2022-08-23T22:46:13.897Z,20.30
2022-08-23T22:48:42.050Z,20.20
2022-08-23T22:51:12.616Z,20.20
2022-08-23T22:53:43.039Z,20.20
2022-08-23T22:56:14.601Z,20.10
2022-08-23T22:58:42.714Z,20.10
2022-08-23T23:01:13.273Z,20.10
2022-08-23T23:03:42.389Z,20.00
2022-08-23T23:06:10.736Z,20.00
2022-08-23T23:08:38.888Z,20.00
2022-08-23T23:11:11.106Z,19.90
2022-08-23T23:13:41.336Z,19.90
2022-08-23T23:16:13.817Z,19.90
2022-08-23T23:19:04.059Z,19.80
2022-08-23T23:21:32.994Z,19.80
2022-08-23T23:24:01.123Z,19.80
2022-08-23T23:26:29.538Z,19.70
2022-08-23T23:28:59.037Z,19.70
2022-08-23T23:31:27.170Z,19.70
2022-08-23T23:33:55.251Z,19.70
2022-08-23T23:36:23.738Z,19.60
2022-08-23T23:38:52.361Z,19.60
2022-08-23T23:41:20.545Z,19.60
2022-08-23T23:43:49.123Z,19.60
2022-08-23T23:46:21.013Z,19.50
2022-08-23T23:48:51.175Z,19.60
2022-08-23T23:51:21.584Z,19.60
2022-08-23T23:53:50.829Z,19.50
2022-08-23T23:56:20.548Z,19.50
2022-08-23T23:58:49.428Z,19.50
